Time;durP1;ratioP1;P1;durP2;ratioP2;P2;SDS_P1;SDS_P2;PMS_P1;PMS_P2;Temp;Humidity;BMP_temperature;BMP_pressure;BME280_temperature;BME280_humidity;BME280_pressure;Samples;Min_cycle;Max_cycle;Signal;HPM_P1;HPM_P2
2021/08/10 00:03:05;;;;;;;3.17;1.30;;;;;;;16.21;67.09;100357.91;10456820;28;20048;-70
2021/08/10 00:08:07;;;;;;;1.40;1.15;;;;;;;16.25;67.46;100364.78;10438615;28;20079;-72
2021/08/10 00:13:08;;;;;;;1.90;1.30;;;;;;;16.35;66.85;100368.69;10456358;28;20049;-72
2021/08/10 00:18:11;;;;;;;2.50;1.50;;;;;;;16.49;66.56;100355.56;10438409;28;20470;-71
2021/08/10 00:23:12;;;;;;;1.95;1.50;;;;;;;16.60;66.21;100355.88;10455952;28;20485;-71
2021/08/10 00:28:15;;;;;;;2.28;1.48;;;;;;;16.78;65.11;100362.06;10438423;28;20120;-71
2021/08/10 00:33:16;;;;;;;1.83;1.30;;;;;;;16.62;66.09;100361.97;10457180;28;20045;-71
2021/08/10 00:38:18;;;;;;;1.35;1.25;;;;;;;16.61;66.25;100354.94;10439508;28;20094;-70
2021/08/10 00:43:36;;;;;;;5.30;1.15;;;;;;;16.94;64.60;100347.97;10439254;28;20513;-71
2021/08/10 00:48:48;;;;;;;1.10;1.00;;;;;;;17.09;64.16;100352.47;10438829;28;20041;-71
2021/08/10 00:53:53;;;;;;;2.55;1.20;;;;;;;16.96;64.70;100349.63;10437718;28;20045;-71
2021/08/10 00:58:56;;;;;;;1.73;1.23;;;;;;;16.83;64.69;100343.25;10437912;28;20144;-70
2021/08/10 01:04:00;;;;;;;2.50;1.30;;;;;;;16.96;65.05;100340.81;10438462;28;20052;-70
2021/08/10 01:09:09;;;;;;;1.63;1.40;;;;;;;16.75;66.28;100340.13;10436893;28;20041;-71
2021/08/10 01:14:44;;;;;;;1.77;1.40;;;;;;;16.68;66.64;100341.34;10454799;28;20033;-71
2021/08/10 01:20:24;;;;;;;2.42;1.45;;;;;;;16.67;67.41;100342.28;10436359;28;20106;-71
2021/08/10 01:25:34;;;;;;;1.70;1.30;;;;;;;16.94;65.50;100340.88;10437442;28;20049;-71
2021/08/10 01:30:53;;;;;;;2.03;1.60;;;;;;;16.99;65.37;100332.66;10437101;28;20526;-70
2021/08/10 01:35:58;;;;;;;5.55;1.48;;;;;;;17.01;64.99;100338.75;10435736;28;20053;-71
2021/08/10 01:41:01;;;;;;;2.17;1.30;;;;;;;16.86;65.51;100332.44;10435178;28;20041;-71
2021/08/10 01:46:05;;;;;;;1.73;1.15;;;;;;;16.76;65.55;100332.06;10436000;28;20108;-70
2021/08/10 01:51:11;;;;;;;1.98;1.70;;;;;;;16.71;66.46;100333.22;10435120;28;20049;-70
2021/08/10 01:56:13;;;;;;;1.48;1.38;;;;;;;16.82;66.85;100329.13;10434928;28;20041;-71
2021/08/10 02:01:20;;;;;;;3.30;1.52;;;;;;;16.86;67.20;100324.47;10435627;28;20133;-71
2021/08/10 02:06:23;;;;;;;1.40;1.15;;;;;;;16.85;67.80;100315.66;10435003;28;20051;-70
2021/08/10 02:11:30;;;;;;;3.03;1.60;;;;;;;17.10;67.01;100317.00;10434929;28;20041;-70
2021/08/10 02:16:38;;;;;;;5.68;1.90;;;;;;;16.88;68.91;100310.19;10434912;28;20056;-71
2021/08/10 02:21:46;;;;;;;3.13;1.70;;;;;;;16.66;70.21;100306.94;10434990;28;20071;-70
2021/08/10 02:26:58;;;;;;;6.80;2.00;;;;;;;16.60;70.75;100316.09;10434545;28;20108;-70
2021/08/10 02:32:02;;;;;;;3.45;1.65;;;;;;;16.78;70.56;100303.66;10459985;28;20133;-71
2021/08/10 02:37:12;;;;;;;2.40;1.70;;;;;;;16.64;70.72;100295.50;10442983;28;20156;-70
2021/08/10 02:42:22;;;;;;;2.45;1.73;;;;;;;16.57;70.78;100312.72;10442384;28;20048;-70
2021/08/10 02:47:24;;;;;;;1.88;1.40;;;;;;;16.42;71.42;100309.03;10442734;28;20186;-71
2021/08/10 02:52:28;;;;;;;3.47;1.70;;;;;;;16.35;72.09;100311.16;10442374;28;20413;-70
2021/08/10 02:57:36;;;;;;;2.20;1.98;;;;;;;16.36;71.75;100296.97;10443993;28;20126;-71
2021/08/10 03:02:48;;;;;;;2.13;1.60;;;;;;;16.23;72.11;100297.66;10460791;28;20079;-71
2021/08/10 03:07:57;;;;;;;2.65;1.83;;;;;;;16.21;72.00;100300.41;10460497;28;20108;-71
2021/08/10 03:13:03;;;;;;;5.63;1.80;;;;;;;16.13;73.16;100292.84;10459308;28;20049;-70
2021/08/10 03:18:09;;;;;;;3.22;1.63;;;;;;;16.10;72.70;100303.59;10414754;23;20143;-72
2021/08/10 03:23:14;;;;;;;3.20;1.60;;;;;;;15.98;73.89;100303.34;10395694;28;20065;-73
2021/08/10 03:28:18;;;;;;;2.42;1.90;;;;;;;16.22;72.98;100293.31;10413351;28;20103;-71
2021/08/10 03:33:29;;;;;;;2.17;1.88;;;;;;;16.18;73.81;100297.06;10397374;28;20053;-72
2021/08/10 03:38:36;;;;;;;2.47;2.05;;;;;;;15.88;74.96;100302.94;10413046;28;20132;-72
2021/08/10 03:43:38;;;;;;;2.63;2.15;;;;;;;15.92;74.37;100299.22;10395369;28;20071;-71
2021/08/10 03:48:43;;;;;;;4.05;1.90;;;;;;;15.80;75.08;100291.84;10379205;28;20372;-72
2021/08/10 03:53:47;;;;;;;2.15;1.88;;;;;;;15.93;74.50;100282.34;10412488;28;20439;-72
2021/08/10 03:58:54;;;;;;;2.72;1.67;;;;;;;15.64;76.07;100281.16;10394532;28;20156;-72
2021/08/10 04:04:00;;;;;;;1.90;1.70;;;;;;;15.77;75.50;100278.78;10393915;28;20049;-72
2021/08/10 04:09:05;;;;;;;3.10;1.70;;;;;;;15.67;76.04;100280.13;10411226;28;20396;-72
2021/08/10 04:14:09;;;;;;;2.58;1.90;;;;;;;15.70;76.21;100280.00;10393261;28;20140;-72
2021/08/10 04:19:13;;;;;;;4.90;2.28;;;;;;;15.98;75.01;100280.38;10393560;28;20431;-72
2021/08/10 04:24:17;;;;;;;3.67;2.25;;;;;;;16.30;72.92;100278.72;10393430;28;20086;-70
2021/08/10 04:29:20;;;;;;;2.47;1.92;;;;;;;16.12;73.73;100279.66;10393945;28;20152;-71
2021/08/10 04:34:23;;;;;;;4.10;2.08;;;;;;;16.09;74.69;100280.66;10393535;28;20057;-71
2021/08/10 04:39:26;;;;;;;3.80;2.38;;;;;;;16.00;75.15;100280.28;10392846;28;20061;-72
2021/08/10 04:44:30;;;;;;;3.37;2.10;;;;;;;15.99;75.10;100282.06;10412289;28;20372;-72
2021/08/10 04:49:32;;;;;;;2.83;1.80;;;;;;;16.18;74.05;100279.34;10392204;28;20092;-72
2021/08/10 04:54:35;;;;;;;3.33;1.73;;;;;;;16.24;73.09;100275.50;10391130;28;20045;-72
2021/08/10 04:59:37;;;;;;;2.75;2.13;;;;;;;16.50;72.88;100271.50;10392007;28;20057;-72
2021/08/10 05:04:38;;;;;;;2.95;1.90;;;;;;;16.55;73.27;100272.13;10392174;28;20053;-72
2021/08/10 05:09:41;;;;;;;3.75;1.83;;;;;;;16.59;73.16;100266.56;10409724;28;20489;-72
2021/08/10 05:14:43;;;;;;;3.55;1.80;;;;;;;16.68;72.39;100280.28;10391975;28;20053;-72
2021/08/10 05:19:45;;;;;;;3.05;1.65;;;;;;;16.84;72.91;100267.97;10391156;28;20125;-72
2021/08/10 05:24:47;;;;;;;2.58;1.50;;;;;;;17.04;71.27;100272.16;10392106;28;20046;-73
2021/08/10 05:29:49;;;;;;;2.22;1.52;;;;;;;17.18;70.60;100271.41;10391886;28;20060;-73
2021/08/10 05:34:51;;;;;;;2.55;1.63;;;;;;;17.54;68.10;100258.75;10391937;28;20420;-73
2021/08/10 05:39:53;;;;;;;2.55;1.30;;;;;;;17.67;66.70;100269.53;10411044;28;20113;-72
2021/08/10 05:44:55;;;;;;;2.25;1.15;;;;;;;17.84;65.26;100264.13;10410446;28;20108;-72
2021/08/10 05:49:57;;;;;;;3.60;1.27;;;;;;;18.00;64.37;100263.22;10391927;28;20041;-73
2021/08/10 05:54:59;;;;;;;2.28;1.60;;;;;;;18.02;63.62;100262.19;10391688;28;20099;-71
2021/08/10 06:00:01;;;;;;;3.38;1.50;;;;;;;18.19;64.66;100263.84;10390835;28;20072;-71
2021/08/10 06:05:11;;;;;;;3.20;1.63;;;;;;;18.18;64.44;100256.81;10408827;28;20049;-71
2021/08/10 06:10:13;;;;;;;3.00;1.33;;;;;;;18.41;63.62;100252.75;10374645;28;20041;-72
2021/08/10 06:15:18;;;;;;;3.63;1.57;;;;;;;18.81;62.88;100248.53;10390648;28;20471;-72
2021/08/10 06:20:23;;;;;;;5.68;1.77;;;;;;;18.73;63.10;100229.53;10390678;28;20049;-72
2021/08/10 06:25:25;;;;;;;5.60;2.38;;;;;;;19.01;61.21;100239.28;10390627;28;20480;-71
2021/08/10 06:30:27;;;;;;;8.93;1.75;;;;;;;18.83;61.90;100245.78;10390176;28;20056;-71
2021/08/10 06:35:28;;;;;;;5.22;1.33;;;;;;;19.34;59.55;100246.06;10390276;28;20053;-71
2021/08/10 06:40:30;;;;;;;2.20;1.60;;;;;;;19.27;61.35;100256.28;10408374;28;20457;-71
2021/08/10 06:45:32;;;;;;;3.30;1.55;;;;;;;19.64;59.93;100245.91;10389909;28;20060;-71
2021/08/10 06:50:34;;;;;;;4.35;1.67;;;;;;;20.20;58.59;100257.25;10390250;28;20045;-71
2021/08/10 06:55:36;;;;;;;3.17;1.45;;;;;;;20.52;57.14;100249.72;10390624;28;20049;-71
2021/08/10 07:00:41;;;;;;;3.95;1.20;;;;;;;21.01;54.08;100246.25;10408679;28;20112;-71
2021/08/10 07:05:43;;;;;;;2.22;1.15;;;;;;;20.62;57.01;100247.25;10408360;28;20455;-72
2021/08/10 07:10:45;;;;;;;3.60;1.20;;;;;;;20.47;58.26;100229.63;10407448;28;20491;-71
2021/08/10 07:15:47;;;;;;;3.80;1.20;;;;;;;20.32;59.33;100242.19;10390636;28;20041;-71
2021/08/10 07:20:52;;;;;;;7.57;1.27;;;;;;;20.65;57.54;100234.56;10414738;28;20490;-70
2021/08/10 07:25:57;;;;;;;3.85;1.80;;;;;;;20.73;56.42;100227.84;10396680;28;20050;-71
2021/08/10 07:31:02;;;;;;;3.25;1.40;;;;;;;20.57;56.71;100236.91;10397932;28;20042;-72
2021/08/10 07:36:06;;;;;;;1.95;1.50;;;;;;;20.46;57.63;100246.63;10397361;28;20060;-75
2021/08/10 07:41:09;;;;;;;3.10;1.67;;;;;;;20.64;57.83;100248.03;10396825;28;20368;-72
2021/08/10 07:46:10;;;;;;;4.38;1.50;;;;;;;20.82;58.30;100240.53;10397093;28;20099;-72
2021/08/10 07:51:18;;;;;;;3.22;1.73;;;;;;;20.97;56.53;100241.25;10380936;28;20046;-72
2021/08/10 07:56:20;;;;;;;3.42;1.65;;;;;;;21.19;56.31;100228.03;10413798;28;20454;-72
2021/08/10 08:01:25;;;;;;;2.25;1.30;;;;;;;21.37;55.48;100231.22;10396076;28;20065;-72
2021/08/10 08:06:27;;;;;;;2.47;1.50;;;;;;;21.22;57.17;100217.13;10395846;28;20419;-72
2021/08/10 08:11:29;;;;;;;3.50;1.40;;;;;;;21.74;55.45;100207.09;10395101;28;20101;-72
2021/08/10 08:16:32;;;;;;;4.60;1.75;;;;;;;21.98;55.19;100209.72;10395530;28;20061;-72
2021/08/10 08:21:34;;;;;;;7.28;1.77;;;;;;;21.77;55.66;100204.16;10394692;28;20503;-71
2021/08/10 08:26:36;;;;;;;1.13;1.02;;;;;;;21.73;55.81;100198.19;10394603;28;20057;-73
2021/08/10 08:31:39;;;;;;;5.10;1.83;;;;;;;21.55;55.83;100213.81;10412252;28;20167;-72
2021/08/10 08:36:42;;;;;;;2.67;1.38;;;;;;;21.57;56.63;100203.00;10411632;28;20492;-70
2021/08/10 08:41:45;;;;;;;2.97;1.30;;;;;;;21.74;54.61;100196.41;10411988;28;20128;-71
2021/08/10 08:46:48;;;;;;;2.25;1.23;;;;;;;21.46;55.07;100201.13;10395554;28;20353;-71
2021/08/10 08:51:50;;;;;;;3.38;1.40;;;;;;;21.15;55.62;100200.66;10394038;28;20452;-72
2021/08/10 08:56:57;;;;;;;2.72;1.20;;;;;;;21.40;57.83;100185.53;10393845;28;20116;-71
2021/08/10 09:02:00;;;;;;;5.90;1.77;;;;;;;21.72;55.08;100195.63;10411094;28;20115;-71
2021/08/10 09:07:03;;;;;;;4.63;1.10;;;;;;;21.96;53.66;100180.41;10392912;28;20041;-72
2021/08/10 09:12:14;;;;;;;3.45;1.45;;;;;;;22.38;51.81;100186.09;10392355;28;20045;-71
2021/08/10 09:17:22;;;;;;;4.50;1.50;;;;;;;22.74;52.19;100176.97;10431269;22;20122;-72
2021/08/10 09:22:33;;;;;;;3.00;1.50;;;;;;;22.97;50.84;100190.38;10455495;28;20136;-73
2021/08/10 09:28:08;;;;;;;2.72;1.25;;;;;;;23.40;50.85;100190.38;10455102;28;20454;-72
2021/08/10 09:33:16;;;;;;;3.47;1.30;;;;;;;23.45;48.68;100172.06;10439500;28;20140;-72
2021/08/10 09:38:24;;;;;;;3.60;1.38;;;;;;;22.96;47.41;100175.25;10454446;28;20127;-72
2021/08/10 09:43:32;;;;;;;1.55;0.98;;;;;;;23.28;48.38;100169.94;10455250;28;20114;-73
2021/08/10 09:48:54;;;;;;;2.95;1.20;;;;;;;23.01;49.39;100138.19;10454646;28;20128;-73
2021/08/10 09:54:11;;;;;;;2.90;1.30;;;;;;;23.05;49.13;100147.69;10454135;28;20053;-72
2021/08/10 09:59:15;;;;;;;3.47;1.05;;;;;;;23.02;48.55;100155.97;10454038;28;20048;-72
2021/08/10 10:04:22;;;;;;;4.45;1.40;;;;;;;22.68;49.98;100193.53;10453209;28;20059;-72
2021/08/10 10:09:32;;;;;;;2.45;1.10;;;;;;;22.97;49.71;100219.84;10453548;28;20072;-73
2021/08/10 10:14:35;;;;;;;3.60;2.00;;;;;;;22.29;50.01;100235.03;10453269;28;20045;-72
2021/08/10 10:19:40;;;;;;;2.25;1.10;;;;;;;21.29;52.99;100247.78;10454250;28;20041;-72
2021/08/10 10:24:57;;;;;;;3.47;0.98;;;;;;;20.92;53.18;100225.53;10454169;28;20044;-72
2021/08/10 10:29:58;;;;;;;2.22;1.00;;;;;;;20.95;51.77;100227.16;10454369;28;20045;-72
2021/08/10 10:35:00;;;;;;;5.45;1.10;;;;;;;20.93;51.64;100232.59;10453740;28;20053;-72
2021/08/10 10:40:05;;;;;;;2.58;1.08;;;;;;;20.57;52.31;100239.56;10453175;28;20136;-73
2021/08/10 10:45:07;;;;;;;2.03;0.90;;;;;;;20.70;53.86;100263.63;10453554;28;20554;-72
2021/08/10 10:50:12;;;;;;;1.60;1.00;;;;;;;21.02;53.43;100288.06;10456331;28;20049;-73
2021/08/10 10:55:14;;;;;;;2.20;1.10;;;;;;;21.18;53.70;100274.47;10462432;28;20052;-72
2021/08/10 11:00:21;;;;;;;2.42;1.00;;;;;;;21.07;53.69;100269.00;10463185;28;20430;-73
2021/08/10 11:05:22;;;;;;;1.67;1.00;;;;;;;21.48;53.18;100257.19;10459932;28;20068;-73
2021/08/10 11:10:47;;;;;;;2.10;1.20;;;;;;;22.22;51.36;100241.81;10461564;28;20100;-74
2021/08/10 11:15:49;;;;;;;1.30;1.08;;;;;;;22.16;51.76;100257.38;10459674;28;20075;-72
2021/08/10 11:21:12;;;;;;;1.55;1.00;;;;;;;21.70;51.60;100273.34;10458827;28;20534;-74
2021/08/10 11:26:14;;;;;;;3.15;1.00;;;;;;;21.91;53.21;100279.78;10453181;28;20403;-73
2021/08/10 11:31:36;;;;;;;2.20;1.17;;;;;;;22.28;51.81;100278.84;10458239;28;20256;-73
2021/08/10 11:36:38;;;;;;;1.55;1.08;;;;;;;22.12;52.10;100282.66;10460954;28;20119;-72
2021/08/10 11:41:39;;;;;;;2.45;1.30;;;;;;;22.12;52.40;100281.81;10458529;28;20037;-73
2021/08/10 11:46:43;;;;;;;2.58;1.45;;;;;;;21.90;51.65;100286.09;10456990;28;20076;-71
2021/08/10 11:51:45;;;;;;;1.73;1.35;;;;;;;21.56;53.27;100262.78;10456369;28;20065;-72
2021/08/10 11:56:55;;;;;;;2.30;1.60;;;;;;;22.06;52.18;100255.50;10458313;28;20111;-73
2021/08/10 12:02:00;;;;;;;2.97;1.30;;;;;;;22.63;50.58;100247.50;10457826;28;20064;-73
2021/08/10 12:07:06;;;;;;;2.05;1.40;;;;;;;22.74;50.94;100235.91;10456055;28;20198;-73
2021/08/10 12:12:11;;;;;;;2.58;1.30;;;;;;;22.90;48.72;100232.91;10457681;28;20044;-72
2021/08/10 12:17:15;;;;;;;1.98;1.20;;;;;;;22.87;49.15;100225.06;10457944;28;20114;-72
2021/08/10 12:22:29;;;;;;;1.92;1.33;;;;;;;22.93;50.07;100216.56;10458585;28;20140;-73
2021/08/10 12:27:34;;;;;;;2.85;1.27;;;;;;;23.63;48.80;100208.09;10457130;28;20067;-73
2021/08/10 12:32:36;;;;;;;2.13;1.20;;;;;;;23.74;47.77;100206.41;10457709;28;20482;-72
2021/08/10 12:37:38;;;;;;;1.38;1.20;;;;;;;23.52;48.05;100200.09;10465136;28;20044;-73
2021/08/10 12:42:40;;;;;;;2.45;1.40;;;;;;;23.64;46.89;100198.22;10480920;28;20048;-73
2021/08/10 12:47:43;;;;;;;3.00;1.50;;;;;;;23.81;48.08;100192.31;10469461;28;20140;-73
2021/08/10 12:52:45;;;;;;;1.90;1.50;;;;;;;23.64;46.87;100177.66;10455723;28;20033;-72
2021/08/10 12:57:47;;;;;;;2.25;1.33;;;;;;;24.09;47.40;100174.72;10495350;28;20070;-72
2021/08/10 13:02:50;;;;;;;2.22;1.15;;;;;;;24.31;45.92;100168.34;10496958;28;20044;-73
2021/08/10 13:08:05;;;;;;;1.60;1.13;;;;;;;24.44;44.47;100160.09;10495314;28;20049;-73
2021/08/10 13:13:08;;;;;;;2.65;1.40;;;;;;;24.76;43.97;100145.66;10469742;28;20067;-72
2021/08/10 13:18:27;;;;;;;2.67;1.20;;;;;;;24.48;44.79;100150.78;10454494;28;20052;-73
2021/08/10 13:23:31;;;;;;;4.38;1.40;;;;;;;24.78;45.33;100138.28;10452778;28;20056;-71
2021/08/10 13:28:51;;;;;;;2.75;1.10;;;;;;;25.19;45.13;100134.59;10452834;28;20164;-72
2021/08/10 13:34:06;;;;;;;3.03;1.42;;;;;;;25.26;44.00;100133.03;10453974;28;20439;-72
2021/08/10 13:39:11;;;;;;;2.33;1.67;;;;;;;25.11;43.76;100124.53;10453114;28;20366;-72
2021/08/10 13:44:12;;;;;;;2.17;1.20;;;;;;;25.16;43.95;100110.66;10454454;28;20128;-72
2021/08/10 13:49:15;;;;;;;1.75;1.00;;;;;;;25.42;43.97;100113.63;10496199;28;20044;-72
2021/08/10 13:54:17;;;;;;;2.40;1.55;;;;;;;25.21;42.90;100097.63;10494312;28;20058;-72
2021/08/10 13:59:18;;;;;;;2.65;1.13;;;;;;;24.50;45.05;100100.44;10494163;28;20094;-71
2021/08/10 14:04:21;;;;;;;4.07;1.83;;;;;;;23.88;47.27;100104.06;10493769;28;20066;-72
2021/08/10 14:09:23;;;;;;;2.35;1.50;;;;;;;23.26;48.56;100105.72;10478096;28;20419;-72
2021/08/10 14:14:25;;;;;;;3.00;1.27;;;;;;;23.47;48.32;100105.75;10477603;28;20052;-72
2021/08/10 14:19:27;;;;;;;2.70;1.20;;;;;;;23.64;47.97;100099.84;10496949;28;20040;-72
2021/08/10 14:24:28;;;;;;;1.42;1.15;;;;;;;23.88;47.47;100093.34;10499684;28;20052;-72
2021/08/10 14:29:30;;;;;;;7.80;1.25;;;;;;;23.96;47.50;100090.00;10503773;28;20044;-71
2021/08/10 14:34:31;;;;;;;3.05;1.52;;;;;;;24.01;47.14;100082.38;10503241;28;20089;-72
2021/08/10 14:39:33;;;;;;;10.82;1.67;;;;;;;23.96;46.79;100080.09;10501856;28;20071;-73
2021/08/10 14:44:35;;;;;;;5.25;1.20;;;;;;;23.56;48.35;100079.97;10502937;28;20112;-72
2021/08/10 14:49:37;;;;;;;3.10;1.38;;;;;;;23.20;48.35;100086.59;10500939;28;20136;-72
2021/08/10 14:54:38;;;;;;;6.18;1.20;;;;;;;23.67;49.45;100072.72;10501381;28;20053;-72
2021/08/10 14:59:40;;;;;;;2.72;1.40;;;;;;;24.03;47.34;100066.97;10499660;28;20055;-72
2021/08/10 15:04:42;;;;;;;3.25;1.40;;;;;;;23.64;47.33;100054.22;10500642;28;20040;-74
2021/08/10 15:09:43;;;;;;;2.53;1.55;;;;;;;23.74;47.77;100050.75;10501143;28;20139;-75
2021/08/10 15:14:45;;;;;;;3.40;1.60;;;;;;;23.69;48.55;100051.13;10482919;28;20053;-74
2021/08/10 15:19:47;;;;;;;3.28;1.10;;;;;;;23.96;47.58;100049.72;10500792;28;20044;-73
2021/08/10 15:24:49;;;;;;;2.40;1.30;;;;;;;23.78;47.85;100041.44;10499892;28;20059;-72
2021/08/10 15:29:51;;;;;;;3.92;1.30;;;;;;;24.13;47.89;100031.16;10500015;28;20482;-72
2021/08/10 15:34:52;;;;;;;3.83;1.60;;;;;;;24.70;45.16;100027.91;10498959;28;20125;-73
2021/08/10 15:39:54;;;;;;;2.70;1.73;;;;;;;24.34;47.30;100027.50;10500465;28;20037;-73
2021/08/10 15:44:56;;;;;;;1.90;1.33;;;;;;;24.28;46.96;100033.44;10499092;28;20043;-72
2021/08/10 15:49:57;;;;;;;3.35;1.70;;;;;;;24.55;45.23;100024.78;10497476;28;20482;-72
2021/08/10 15:54:59;;;;;;;2.20;1.40;;;;;;;24.64;45.42;100022.09;10497948;28;20106;-72
2021/08/10 16:00:05;;;;;;;2.22;1.60;;;;;;;25.51;42.86;100017.72;10480758;28;20409;-73
2021/08/10 16:05:09;;;;;;;2.47;1.55;;;;;;;25.53;42.32;100019.28;10497858;28;20208;-72
2021/08/10 16:10:11;;;;;;;1.88;1.45;;;;;;;24.92;44.33;100028.53;10497649;28;20037;-72
2021/08/10 16:15:12;;;;;;;2.85;1.33;;;;;;;24.65;44.33;100021.09;10498167;28;20082;-71
2021/08/10 16:20:14;;;;;;;3.33;1.50;;;;;;;24.23;46.32;100022.25;10497606;28;20094;-71
2021/08/10 16:25:16;;;;;;;2.72;1.58;;;;;;;24.17;45.64;100031.69;10497170;28;20047;-73
2021/08/10 16:30:17;;;;;;;1.48;1.30;;;;;;;24.16;46.84;100022.78;10497106;28;20101;-72
2021/08/10 16:35:19;;;;;;;1.95;1.55;;;;;;;23.93;48.00;100026.66;10497687;28;20048;-73
2021/08/10 16:40:21;;;;;;;3.33;1.50;;;;;;;23.92;46.36;100019.59;10495748;28;20098;-72
2021/08/10 16:45:23;;;;;;;2.20;1.88;;;;;;;24.15;46.22;100018.41;10493331;28;20076;-74
2021/08/10 16:50:26;;;;;;;2.53;1.30;;;;;;;23.79;47.34;100013.59;10491631;28;20409;-74
2021/08/10 16:55:28;;;;;;;4.55;1.50;;;;;;;23.65;47.59;100012.97;10494484;28;20044;-74
2021/08/10 17:00:30;;;;;;;2.78;1.60;;;;;;;23.74;47.70;100014.00;10494237;28;20044;-73
2021/08/10 17:05:32;;;;;;;3.15;1.50;;;;;;;23.71;47.73;100010.72;10493888;28;20085;-73
2021/08/10 17:10:35;;;;;;;3.13;1.70;;;;;;;23.84;46.40;100000.63;10495193;28;20447;-74
2021/08/10 17:15:36;;;;;;;1.67;1.50;;;;;;;23.40;48.89;100005.28;10494734;28;20074;-73
2021/08/10 17:20:39;;;;;;;2.65;1.70;;;;;;;23.18;49.10;100006.28;10494905;28;20040;-73
2021/08/10 17:25:43;;;;;;;1.65;1.35;;;;;;;23.32;48.78;100002.41;10495024;28;20040;-73
2021/08/10 17:30:44;;;;;;;3.13;1.92;;;;;;;22.94;50.54;100011.88;10492992;28;20113;-73
2021/08/10 17:35:48;;;;;;;2.10;1.40;;;;;;;22.77;50.24;100010.56;10494551;28;20534;-74
2021/08/10 17:40:50;;;;;;;2.80;1.80;;;;;;;22.61;50.75;100010.13;10494427;28;20068;-73
2021/08/10 17:45:55;;;;;;;2.10;1.48;;;;;;;22.35;51.53;100020.28;10493453;28;20044;-73
2021/08/10 17:50:57;;;;;;;2.72;1.55;;;;;;;22.11;51.74;100015.06;10481253;28;20178;-74
2021/08/10 17:55:59;;;;;;;2.15;1.80;;;;;;;22.03;51.68;100017.50;10466111;28;20057;-74
2021/08/10 18:01:00;;;;;;;1.58;1.48;;;;;;;21.91;52.62;100019.31;10453627;28;20118;-75
2021/08/10 18:06:03;;;;;;;2.05;1.60;;;;;;;21.67;53.18;100020.28;10454422;28;20032;-74
2021/08/10 18:11:06;;;;;;;2.95;1.90;;;;;;;21.65;52.80;100024.06;10453387;28;20148;-74
2021/08/10 18:16:07;;;;;;;3.50;2.70;;;;;;;21.61;53.58;100023.44;10452844;28;20107;-73
2021/08/10 18:21:09;;;;;;;2.80;2.08;;;;;;;21.45;55.23;100019.41;10452379;28;20048;-74
2021/08/10 18:26:11;;;;;;;2.25;1.88;;;;;;;21.16;55.84;100023.31;10480061;28;20124;-73
2021/08/10 18:31:12;;;;;;;5.60;3.40;;;;;;;20.98;55.03;100030.00;10493249;28;20429;-73
2021/08/10 18:36:15;;;;;;;3.35;2.80;;;;;;;20.87;55.32;100033.50;10493657;28;20056;-74
2021/08/10 18:41:20;;;;;;;5.95;2.67;;;;;;;20.64;56.09;100029.03;10494879;28;20419;-73
2021/08/10 18:46:21;;;;;;;2.70;2.15;;;;;;;20.72;56.94;100044.47;10493118;28;20075;-73
2021/08/10 18:51:25;;;;;;;3.72;2.70;;;;;;;20.49;57.57;100052.34;10491944;28;20494;-72
2021/08/10 18:56:27;;;;;;;2.63;2.40;;;;;;;20.46;58.05;100049.88;10493210;28;20509;-73
2021/08/10 19:01:29;;;;;;;3.38;3.08;;;;;;;20.48;57.53;100052.47;10493388;28;20044;-73
2021/08/10 19:06:31;;;;;;;3.38;2.67;;;;;;;20.46;58.51;100049.88;10493801;28;20052;-73
2021/08/10 19:11:33;;;;;;;5.05;3.33;;;;;;;20.53;58.56;100055.66;10495042;28;20077;-74
2021/08/10 19:16:35;;;;;;;4.13;3.22;;;;;;;20.44;59.01;100051.78;10500762;28;20056;-72
2021/08/10 19:21:37;;;;;;;3.00;2.80;;;;;;;20.33;59.88;100047.25;10499509;28;20041;-74
2021/08/10 19:26:39;;;;;;;4.28;3.30;;;;;;;20.30;61.07;100051.94;10499516;28;20079;-74
2021/08/10 19:31:41;;;;;;;3.88;3.35;;;;;;;20.38;60.37;100061.09;10500301;28;20098;-73
2021/08/10 19:36:43;;;;;;;5.07;3.25;;;;;;;20.48;60.85;100068.47;10499944;28;20060;-73
2021/08/10 19:41:45;;;;;;;5.03;3.65;;;;;;;20.41;60.84;100113.44;10498120;28;20087;-74
2021/08/10 19:46:48;;;;;;;5.45;3.10;;;;;;;19.62;67.86;100146.50;10482455;28;20053;-72
2021/08/10 19:51:52;;;;;;;5.55;2.33;;;;;;;18.41;74.99;100162.25;10497898;28;20079;-73
2021/08/10 19:56:53;;;;;;;7.22;2.88;;;;;;;17.70;79.20;100188.72;10497738;28;20098;-72
2021/08/10 20:01:57;;;;;;;3.92;2.88;;;;;;;17.49;80.64;100177.56;10498694;28;20040;-73
2021/08/10 20:06:59;;;;;;;3.17;2.30;;;;;;;17.52;79.84;100172.06;10499392;28;20041;-72
2021/08/10 20:12:01;;;;;;;2.80;2.10;;;;;;;17.47;80.38;100159.03;10499622;28;20050;-72
2021/08/10 20:17:02;;;;;;;2.83;2.10;;;;;;;17.47;81.17;100131.59;10499535;28;20113;-72
2021/08/10 20:22:04;;;;;;;4.40;2.38;;;;;;;17.46;82.21;100138.72;10498050;28;20062;-73
2021/08/10 20:27:06;;;;;;;6.05;2.33;;;;;;;17.24;85.22;100140.91;10498243;28;20120;-74
2021/08/10 20:32:08;;;;;;;2.35;1.77;;;;;;;17.48;83.06;100157.22;10499318;28;20047;-73
2021/08/10 20:37:10;;;;;;;4.10;1.73;;;;;;;17.45;83.16;100152.97;10500075;28;20052;-72
2021/08/10 20:42:11;;;;;;;3.13;2.78;;;;;;;17.39;83.86;100150.66;10498254;28;20044;-73
2021/08/10 20:47:14;;;;;;;3.92;2.67;;;;;;;17.44;83.45;100150.38;10481218;28;20067;-73
2021/08/10 20:52:16;;;;;;;3.60;2.22;;;;;;;17.49;83.61;100159.81;10498423;28;20409;-73
2021/08/10 20:57:17;;;;;;;3.08;2.78;;;;;;;17.40;85.11;100155.88;10497775;28;20120;-73
2021/08/10 21:02:19;;;;;;;3.78;2.58;;;;;;;17.44;85.00;100161.84;10498585;28;20129;-73
2021/08/10 21:07:21;;;;;;;3.83;2.65;;;;;;;17.38;85.14;100168.41;10497417;28;20102;-73
2021/08/10 21:12:23;;;;;;;3.65;2.42;;;;;;;17.32;85.64;100181.19;10496722;28;20041;-73
2021/08/10 21:17:25;;;;;;;3.38;2.33;;;;;;;17.23;85.90;100176.41;10497585;28;20129;-72
2021/08/10 21:22:27;;;;;;;3.20;2.20;;;;;;;17.20;85.68;100174.75;10497241;28;20115;-73
2021/08/10 21:27:28;;;;;;;3.08;2.60;;;;;;;17.24;85.50;100175.44;10483207;22;20106;-73
2021/08/10 21:32:30;;;;;;;4.20;2.28;;;;;;;17.07;85.87;100177.25;10432436;28;20045;-72
2021/08/10 21:37:32;;;;;;;3.42;2.08;;;;;;;17.00;85.49;100185.66;10433176;28;20168;-72
2021/08/10 21:42:34;;;;;;;2.88;2.40;;;;;;;17.14;84.23;100181.28;10433229;28;20041;-72
2021/08/10 21:47:36;;;;;;;2.92;2.72;;;;;;;16.82;86.07;100195.50;10452146;28;20107;-72
2021/08/10 21:52:38;;;;;;;2.85;2.63;;;;;;;16.56;87.54;100199.56;10450707;28;20494;-71
2021/08/10 21:57:39;;;;;;;6.90;2.72;;;;;;;16.59;86.85;100212.63;10450599;28;20157;-72
2021/08/10 22:02:41;;;;;;;3.47;2.28;;;;;;;16.67;86.61;100212.22;10434668;28;20413;-72
2021/08/10 22:07:43;;;;;;;3.08;2.75;;;;;;;16.61;87.30;100219.59;10433238;28;20053;-72
2021/08/10 22:12:44;;;;;;;2.75;2.55;;;;;;;16.46;88.11;100209.78;10450550;28;20531;-72
2021/08/10 22:17:46;;;;;;;4.00;2.83;;;;;;;16.36;88.91;100208.56;10449813;28;20107;-72
2021/08/10 22:22:48;;;;;;;3.85;3.03;;;;;;;16.50;89.01;100215.78;10432569;28;20358;-72
2021/08/10 22:27:53;;;;;;;4.18;3.30;;;;;;;16.64;88.40;100213.25;10451891;28;20094;-73
2021/08/10 22:32:55;;;;;;;3.05;2.83;;;;;;;16.57;88.61;100217.19;10451708;28;20103;-73
2021/08/10 22:37:57;;;;;;;3.40;2.72;;;;;;;16.38;89.16;100242.03;10452245;28;20048;-72
2021/08/10 22:42:58;;;;;;;3.58;2.13;;;;;;;16.67;81.77;100233.47;10449525;28;20118;-72
2021/08/10 22:48:00;;;;;;;2.63;1.70;;;;;;;16.81;78.60;100236.25;10439130;28;20136;-73
2021/08/10 22:53:02;;;;;;;3.53;2.13;;;;;;;16.76;79.43;100233.84;10440262;28;20045;-73
2021/08/10 22:58:04;;;;;;;3.53;2.40;;;;;;;16.80;79.10;100243.38;10457556;28;20150;-73
2021/08/10 23:03:06;;;;;;;6.22;2.15;;;;;;;16.81;79.45;100241.56;10439327;28;20114;-72
2021/08/10 23:08:07;;;;;;;9.02;2.33;;;;;;;16.76;79.76;100241.81;10422620;28;20159;-72
2021/08/10 23:13:09;;;;;;;3.85;2.60;;;;;;;16.80;79.82;100218.63;10439315;28;20044;-73
2021/08/10 23:18:11;;;;;;;2.53;2.15;;;;;;;16.79;80.73;100201.00;10439407;28;20049;-72